CheckWX is a tool to help pilots better visualize weather data.  It is not intended as a substitute for an official pre-flight weather briefing.

07:47:35 UTC

KSLC METAR
Salt Lake City International Airport
Salt Lake City, Utah, USA
Current

54 mins ago

KSLC 180654Z 15007KT 10SM SCT200 13/02 A3002 RMK AO2 SLP133 T01330022 402560117
Observed
Sep-18 @ 06:54 UTC
Wind
  • 150° at 7 KTS
Visibility
10 SM
Flight Rules
VFR
Cloud Levels
  • Scattered at 20,000' AGL
Temperature
13°C / 55°F
Dewpoint
C / 36°F
Humidity
47%
Altimeter
30.02" Hg
Pressure
1016.62 hPa
Previous

2 hours ago

KSLC 180554Z 12006KT 10SM SCT200 13/03 A3004 RMK AO2 SLP140 T01330028 10194 20133 58005
Observed
Sep-18 @ 05:54 UTC
Wind
  • 120° at 6 KTS
Visibility
10 SM
Flight Rules
VFR
Cloud Levels
  • Scattered at 20,000' AGL
Temperature
13°C / 55°F
Dewpoint
C / 37°F
Humidity
51%
Altimeter
30.04" Hg
Pressure
1017.32 hPa
Previous

3 hours ago

KSLC 180454Z 15005KT 10SM SCT200 14/03 A3004 RMK AO2 SLP141 T01390033
Observed
Sep-18 @ 04:54 UTC
Wind
  • 150° at 5 KTS
Visibility
10 SM
Flight Rules
VFR
Cloud Levels
  • Scattered at 20,000' AGL
Temperature
14°C / 57°F
Dewpoint
C / 37°F
Humidity
48%
Altimeter
30.04" Hg
Pressure
1017.32 hPa